Time;durP1;ratioP1;P1;durP2;ratioP2;P2;SDS_P1;SDS_P2;PMS_P1;PMS_P2;Temp;Humidity;BMP_temperature;BMP_pressure;BME280_temperature;BME280_humidity;BME280_pressure;Samples;Min_cycle;Max_cycle;Signal;HPM_P1;HPM_P2
2022/01/07 00:00:50;;;;;;;12.23;5.00;;;4.90;99.90;;;;;;5116709;27;20194;-79
2022/01/07 00:03:18;;;;;;;10.35;4.90;;;4.20;99.90;;;;;;5116725;27;20114;-79
2022/01/07 00:05:44;;;;;;;11.52;4.22;;;4.80;99.90;;;;;;5117178;27;20043;-80
2022/01/07 00:08:10;;;;;;;11.23;4.32;;;5.00;99.90;;;;;;5135398;27;20104;-81
2022/01/07 00:10:36;;;;;;;16.10;4.15;;;4.50;99.90;;;;;;5134876;27;20043;-79
2022/01/07 00:13:02;;;;;;;9.55;4.32;;;4.00;99.90;;;;;;5134448;27;20448;-80
2022/01/07 00:15:28;;;;;;;12.77;4.20;;;4.30;99.90;;;;;;5134836;27;20058;-79
2022/01/07 00:17:54;;;;;;;11.52;4.88;;;4.60;99.90;;;;;;5134737;27;20047;-78
2022/01/07 00:20:20;;;;;;;10.65;4.22;;;4.20;99.90;;;;;;5134742;27;20043;-78
2022/01/07 00:22:47;;;;;;;9.57;3.92;;;4.50;99.90;;;;;;5116431;27;20134;-78
2022/01/07 00:25:14;;;;;;;9.05;3.70;;;4.30;99.90;;;;;;5134624;27;20525;-79
2022/01/07 00:27:40;;;;;;;7.30;3.47;;;4.70;99.90;;;;;;5099107;27;20043;-78
2022/01/07 00:30:09;;;;;;;12.52;3.90;;;4.90;99.90;;;;;;5116560;27;20047;-78
2022/01/07 00:32:35;;;;;;;9.30;3.47;;;4.10;99.90;;;;;;5099070;28;20074;-81
2022/01/07 00:35:01;;;;;;;9.45;3.55;;;4.10;99.90;;;;;;5116496;28;20169;-82
2022/01/07 00:37:27;;;;;;;8.85;3.28;;;4.20;99.90;;;;;;5134971;28;20073;-82
2022/01/07 00:39:52;;;;;;;5.85;3.83;;;4.00;99.90;;;;;;5116206;28;20074;-80
2022/01/07 00:42:18;;;;;;;13.43;4.38;;;4.00;99.90;;;;;;5099668;28;20134;-80
2022/01/07 00:44:44;;;;;;;9.07;3.63;;;4.30;99.90;;;;;;5116956;28;20096;-80
2022/01/07 00:47:10;;;;;;;7.20;3.63;;;4.60;99.90;;;;;;5116733;28;20051;-80
2022/01/07 00:49:36;;;;;;;9.50;4.05;;;4.00;99.90;;;;;;5116710;27;20054;-81
2022/01/07 00:52:02;;;;;;;8.32;3.53;;;4.80;99.90;;;;;;5102864;27;20424;-80
2022/01/07 00:54:28;;;;;;;6.80;4.22;;;4.10;99.90;;;;;;5138594;27;20486;-79
2022/01/07 00:56:54;;;;;;;8.88;3.42;;;4.30;99.90;;;;;;5121338;27;20050;-80
2022/01/07 00:59:20;;;;;;;9.32;3.03;;;4.30;99.90;;;;;;5120128;27;20045;-80
2022/01/07 01:01:46;;;;;;;8.52;2.78;;;4.40;99.90;;;;;;5119929;27;20134;-80
2022/01/07 01:04:13;;;;;;;10.45;3.30;;;4.00;99.90;;;;;;5120237;27;20055;-81
2022/01/07 01:06:41;;;;;;;8.80;3.63;;;4.50;99.90;;;;;;5120250;27;20039;-79
2022/01/07 01:09:10;;;;;;;7.65;3.50;;;4.10;99.90;;;;;;5120970;27;20091;-80
2022/01/07 01:11:36;;;;;;;9.57;3.13;;;4.50;99.90;;;;;;5103072;27;20055;-80
2022/01/07 01:14:02;;;;;;;7.50;3.17;;;4.80;99.90;;;;;;5102906;27;20502;-78
2022/01/07 01:16:28;;;;;;;10.98;3.55;;;4.20;99.90;;;;;;5102994;27;20068;-79
2022/01/07 01:18:54;;;;;;;9.45;4.03;;;4.30;99.90;;;;;;5103342;27;20130;-79
2022/01/07 01:21:19;;;;;;;8.90;3.20;;;4.10;99.90;;;;;;5120001;27;20124;-79
2022/01/07 01:23:50;;;;;;;8.55;3.28;;;3.80;99.90;;;;;;5102982;27;20053;-81
2022/01/07 01:26:18;;;;;;;8.70;3.33;;;4.60;99.90;;;;;;5138107;27;20445;-78
2022/01/07 01:28:45;;;;;;;6.80;3.22;;;3.90;99.90;;;;;;5137966;27;20046;-79
2022/01/07 01:31:14;;;;;;;8.25;3.10;;;4.20;99.90;;;;;;5120141;27;20078;-79
2022/01/07 01:33:40;;;;;;;7.22;2.95;;;4.10;99.90;;;;;;5119873;27;20047;-79
2022/01/07 01:36:08;;;;;;;9.82;3.30;;;3.80;99.90;;;;;;5068881;27;20528;-79
2022/01/07 01:38:35;;;;;;;9.77;3.90;;;3.80;99.90;;;;;;5137448;27;20100;-79
2022/01/07 01:41:01;;;;;;;11.93;3.53;;;3.80;99.90;;;;;;5138148;27;20045;-79
2022/01/07 01:43:26;;;;;;;8.10;3.10;;;3.80;99.90;;;;;;5102440;27;20043;-79
2022/01/07 01:45:52;;;;;;;11.95;3.85;;;3.90;99.90;;;;;;5085718;27;20430;-80
2022/01/07 01:48:20;;;;;;;8.18;4.00;;;3.90;99.90;;;;;;5137618;27;20046;-79
2022/01/07 01:50:47;;;;;;;7.38;3.63;;;3.90;99.90;;;;;;5138094;27;20125;-79
2022/01/07 01:53:14;;;;;;;5.68;3.25;;;3.70;99.90;;;;;;5137454;27;20386;-78
2022/01/07 01:55:40;;;;;;;11.88;3.97;;;3.60;99.90;;;;;;5137531;27;20394;-80
2022/01/07 01:58:06;;;;;;;5.75;3.47;;;3.50;99.90;;;;;;5137714;27;20039;-80
2022/01/07 02:00:32;;;;;;;6.57;3.80;;;3.80;99.90;;;;;;5101803;27;20502;-80
2022/01/07 02:02:58;;;;;;;7.05;3.25;;;3.70;99.90;;;;;;5117284;28;20125;-78
2022/01/07 02:05:26;;;;;;;9.27;4.43;;;3.60;99.90;;;;;;5117963;28;20601;-80
2022/01/07 02:07:53;;;;;;;11.43;3.70;;;4.00;99.90;;;;;;5135696;28;20513;-80
2022/01/07 02:10:20;;;;;;;8.07;4.03;;;4.00;99.90;;;;;;5117880;28;20054;-80
2022/01/07 02:12:46;;;;;;;7.68;3.45;;;3.40;99.90;;;;;;5135953;28;20092;-79
2022/01/07 02:15:14;;;;;;;4.95;3.25;;;4.10;99.90;;;;;;5135952;28;20062;-80
2022/01/07 02:17:41;;;;;;;6.20;3.33;;;4.20;99.90;;;;;;5135919;28;20051;-79
2022/01/07 02:20:08;;;;;;;6.85;3.80;;;4.00;99.90;;;;;;5117709;28;20043;-79
2022/01/07 02:22:33;;;;;;;6.70;3.70;;;3.60;99.90;;;;;;5135882;28;20046;-79
2022/01/07 02:24:59;;;;;;;6.85;3.42;;;3.90;99.90;;;;;;5100732;28;20129;-79
2022/01/07 02:27:25;;;;;;;7.68;4.07;;;3.80;99.90;;;;;;5135867;28;20043;-78
2022/01/07 02:29:51;;;;;;;7.47;3.70;;;3.80;99.90;;;;;;5118407;28;20162;-79
2022/01/07 02:32:19;;;;;;;8.02;3.55;;;3.40;99.90;;;;;;5118369;28;20478;-80
2022/01/07 02:34:46;;;;;;;6.68;3.85;;;3.50;99.90;;;;;;5117941;28;20576;-79
2022/01/07 02:37:13;;;;;;;10.45;4.60;;;3.60;99.90;;;;;;5135635;28;20043;-76
2022/01/07 02:39:40;;;;;;;7.85;4.43;;;3.90;99.90;;;;;;5117809;28;20039;-79
2022/01/07 02:42:06;;;;;;;9.55;4.30;;;3.40;99.90;;;;;;5136083;28;20136;-80
2022/01/07 02:44:32;;;;;;;8.75;3.72;;;3.50;99.90;;;;;;5117386;28;20044;-79
2022/01/07 02:46:59;;;;;;;6.65;3.78;;;4.10;99.90;;;;;;5117281;28;20039;-79
2022/01/07 02:49:24;;;;;;;9.88;4.32;;;3.70;99.90;;;;;;5117923;28;20220;-77
2022/01/07 02:51:50;;;;;;;8.68;4.93;;;4.30;99.90;;;;;;5135376;28;20553;-79
2022/01/07 02:54:16;;;;;;;9.05;5.00;;;4.00;99.90;;;;;;5100849;28;20352;-80
2022/01/07 02:56:42;;;;;;;9.32;5.07;;;3.50;99.90;;;;;;5116924;28;20479;-79
2022/01/07 02:59:09;;;;;;;10.15;4.75;;;3.60;99.90;;;;;;5100079;28;20039;-79
2022/01/07 03:01:37;;;;;;;7.47;4.57;;;4.50;99.90;;;;;;5044189;27;1112740;-79
2022/01/07 03:04:03;;;;;;;8.40;4.85;;;3.50;99.90;;;;;;5136078;27;20054;-79
2022/01/07 03:06:30;;;;;;;7.65;4.78;;;3.30;99.90;;;;;;5118774;27;20043;-79
2022/01/07 03:08:56;;;;;;;7.25;4.40;;;3.80;99.90;;;;;;5135998;27;20159;-80
2022/01/07 03:11:23;;;;;;;9.88;4.82;;;3.80;99.90;;;;;;5118117;27;20383;-81
2022/01/07 03:13:50;;;;;;;6.38;4.85;;;3.70;99.90;;;;;;5099584;27;20075;-80
2022/01/07 03:16:16;;;;;;;7.85;4.68;;;3.50;99.90;;;;;;5135850;27;20134;-80
2022/01/07 03:18:42;;;;;;;7.93;4.82;;;3.20;99.90;;;;;;5118019;27;20047;-79
2022/01/07 03:21:08;;;;;;;8.55;4.80;;;4.40;99.90;;;;;;5083371;27;20047;-80
2022/01/07 03:23:37;;;;;;;8.98;5.30;;;3.70;99.90;;;;;;5117361;27;20035;-80
2022/01/07 03:26:03;;;;;;;7.68;4.55;;;3.40;99.90;;;;;;5117399;27;20121;-80
2022/01/07 03:28:29;;;;;;;6.90;4.95;;;3.50;99.90;;;;;;5136106;27;20082;-80
2022/01/07 03:30:55;;;;;;;6.22;4.95;;;3.70;99.90;;;;;;5117396;27;20082;-79
2022/01/07 03:33:21;;;;;;;11.60;4.72;;;2.10;99.90;;;;;;5100424;27;20088;-80
2022/01/07 03:35:46;;;;;;;9.50;4.95;;;4.20;99.90;;;;;;5135575;27;20078;-79
2022/01/07 03:38:13;;;;;;;9.18;5.10;;;3.50;99.90;;;;;;5135063;27;20045;-80
2022/01/07 03:40:39;;;;;;;8.18;4.97;;;3.30;99.90;;;;;;5117607;27;20126;-80
2022/01/07 03:43:05;;;;;;;7.97;5.13;;;3.60;99.90;;;;;;5117596;27;20039;-81
2022/01/07 03:45:31;;;;;;;9.35;4.70;;;3.20;99.90;;;;;;5135427;27;20047;-79
2022/01/07 03:47:57;;;;;;;9.93;5.35;;;3.30;99.90;;;;;;5135305;27;20050;-79
2022/01/07 03:50:26;;;;;;;7.65;5.40;;;4.20;99.90;;;;;;5100184;27;20075;-80
2022/01/07 03:52:53;;;;;;;10.98;5.63;;;3.20;99.90;;;;;;5135095;27;20051;-79
2022/01/07 03:55:28;;;;;;;10.18;5.05;;;3.20;99.90;;;;;;5135162;27;20134;-80
2022/01/07 03:57:54;;;;;;;8.55;5.28;;;3.90;99.90;;;;;;5135162;27;20043;-80
2022/01/07 04:00:23;;;;;;;11.35;4.90;;;4.20;99.90;;;;;;5099990;27;20043;-80
2022/01/07 04:02:49;;;;;;;8.10;5.60;;;3.90;99.90;;;;;;5135438;27;20055;-80
2022/01/07 04:05:19;;;;;;;7.68;5.15;;;4.00;99.90;;;;;;5116691;27;20043;-80
2022/01/07 04:07:45;;;;;;;8.20;5.80;;;4.40;99.90;;;;;;5117411;27;20048;-79
2022/01/07 04:10:11;;;;;;;9.27;5.72;;;3.10;99.90;;;;;;5116810;27;20486;-80
2022/01/07 04:12:37;;;;;;;7.75;5.10;;;3.80;99.90;;;;;;5134910;27;20090;-81
2022/01/07 04:15:09;;;;;;;8.07;5.68;;;3.20;99.90;;;;;;5134908;27;20047;-81
2022/01/07 04:17:41;;;;;;;8.87;5.57;;;3.10;99.90;;;;;;5134851;27;20051;-80
2022/01/07 04:20:10;;;;;;;9.93;4.90;;;3.20;99.90;;;;;;5116543;27;20287;-79
2022/01/07 04:22:36;;;;;;;8.55;5.53;;;3.20;99.90;;;;;;5116321;27;20049;-80
2022/01/07 04:25:06;;;;;;;7.97;5.38;;;3.20;99.90;;;;;;5134305;27;20122;-80
2022/01/07 04:27:32;;;;;;;8.45;5.40;;;3.10;99.90;;;;;;5116630;27;20077;-80
2022/01/07 04:29:58;;;;;;;9.80;5.85;;;3.10;99.90;;;;;;5134699;27;20043;-80
2022/01/07 04:32:24;;;;;;;9.00;5.70;;;4.10;99.90;;;;;;5116836;27;20039;-79
2022/01/07 04:34:50;;;;;;;8.05;5.95;;;3.60;99.90;;;;;;5135173;27;20040;-80
2022/01/07 04:37:17;;;;;;;8.82;5.70;;;4.10;99.90;;;;;;5116498;28;20050;-81
2022/01/07 04:39:43;;;;;;;9.05;5.40;;;3.60;99.90;;;;;;5134541;28;20047;-81
2022/01/07 04:42:09;;;;;;;8.13;5.35;;;3.60;99.90;;;;;;5116511;28;20131;-82
2022/01/07 04:44:40;;;;;;;8.60;5.60;;;3.40;99.90;;;;;;5099307;28;20482;-80
2022/01/07 04:47:10;;;;;;;8.38;5.53;;;3.20;99.90;;;;;;5100575;28;20058;-82
2022/01/07 04:49:36;;;;;;;7.10;5.38;;;3.40;99.90;;;;;;5099228;28;20494;-80
2022/01/07 04:52:06;;;;;;;8.15;5.10;;;3.60;99.90;;;;;;5099865;28;20075;-79
2022/01/07 04:54:33;;;;;;;8.45;4.85;;;3.40;99.90;;;;;;5134673;28;20039;-81
2022/01/07 04:56:59;;;;;;;8.23;5.22;;;3.70;99.90;;;;;;5134411;28;20058;-81
2022/01/07 04:59:25;;;;;;;9.30;5.50;;;3.70;99.90;;;;;;5116292;28;20043;-81
2022/01/07 05:01:52;;;;;;;7.95;5.05;;;3.10;99.90;;;;;;5115919;28;20070;-80
2022/01/07 05:04:18;;;;;;;9.13;5.78;;;3.80;99.90;;;;;;5116153;28;20451;-82
2022/01/07 05:06:47;;;;;;;7.75;5.47;;;3.40;99.90;;;;;;5135183;28;20096;-81
2022/01/07 05:09:16;;;;;;;9.00;5.78;;;3.30;99.90;;;;;;5099717;28;20047;-81
2022/01/07 05:11:46;;;;;;;9.00;5.55;;;3.50;99.90;;;;;;5115936;28;20130;-80
2022/01/07 05:14:12;;;;;;;7.90;5.43;;;3.10;99.90;;;;;;5134162;28;20047;-81
2022/01/07 05:16:39;;;;;;;9.40;5.22;;;3.20;99.90;;;;;;5134150;28;20042;-80
2022/01/07 05:19:04;;;;;;;10.70;6.28;;;4.00;99.90;;;;;;5134262;28;20051;-82
2022/01/07 05:21:30;;;;;;;8.27;5.13;;;3.10;99.90;;;;;;5134207;28;20551;-81
2022/01/07 05:23:56;;;;;;;8.18;5.35;;;3.90;99.90;;;;;;5116492;28;20046;-80
2022/01/07 05:26:22;;;;;;;6.63;5.00;;;3.30;99.90;;;;;;5115961;28;20048;-82
2022/01/07 05:28:48;;;;;;;9.68;5.05;;;3.10;99.90;;;;;;5115486;28;20134;-81
2022/01/07 05:31:14;;;;;;;8.68;5.57;;;3.50;99.90;;;;;;5098913;28;20047;-82
2022/01/07 05:33:39;;;;;;;6.60;4.50;;;3.90;99.90;;;;;;5134060;28;20039;-82
2022/01/07 05:36:05;;;;;;;8.95;5.20;;;3.50;99.90;;;;;;5134085;27;20092;-81
2022/01/07 05:38:31;;;;;;;9.63;5.30;;;3.40;99.90;;;;;;5118974;27;20402;-80
2022/01/07 05:40:57;;;;;;;8.07;5.32;;;3.60;99.90;;;;;;5138752;27;20446;-80
2022/01/07 05:43:22;;;;;;;6.15;5.03;;;3.60;99.90;;;;;;5103491;27;20047;-80
2022/01/07 05:45:48;;;;;;;7.53;5.00;;;3.70;99.90;;;;;;5119420;27;20615;-80
2022/01/07 05:48:14;;;;;;;8.73;5.05;;;3.40;99.90;;;;;;5137647;27;20051;-81
2022/01/07 05:50:40;;;;;;;6.47;4.55;;;3.70;99.90;;;;;;5119284;27;20101;-81
2022/01/07 05:53:05;;;;;;;5.57;4.43;;;4.10;99.90;;;;;;5137480;27;20107;-81
2022/01/07 05:55:31;;;;;;;7.47;4.38;;;3.60;99.90;;;;;;5102995;27;20057;-81
2022/01/07 05:57:57;;;;;;;7.28;4.38;;;3.60;99.90;;;;;;5137513;27;20043;-81
2022/01/07 06:00:23;;;;;;;6.95;4.45;;;3.30;99.90;;;;;;5137508;27;20084;-80
2022/01/07 06:02:49;;;;;;;7.50;5.05;;;3.40;99.90;;;;;;5137006;27;20069;-81
2022/01/07 06:05:15;;;;;;;7.47;5.40;;;3.30;99.90;;;;;;5119259;27;20054;-80
2022/01/07 06:07:40;;;;;;;6.95;4.63;;;4.20;99.90;;;;;;5137209;27;20054;-80
2022/01/07 06:10:07;;;;;;;6.45;4.78;;;4.30;99.90;;;;;;5137242;27;20380;-81
2022/01/07 06:12:33;;;;;;;6.75;4.75;;;3.40;99.90;;;;;;5118906;27;20050;-80
2022/01/07 06:14:59;;;;;;;7.95;4.55;;;3.20;99.90;;;;;;5119492;27;20043;-80
2022/01/07 06:17:25;;;;;;;5.78;4.35;;;3.50;99.90;;;;;;5118972;27;20489;-80
2022/01/07 06:19:51;;;;;;;6.20;4.40;;;4.30;99.90;;;;;;5119192;27;20058;-79
2022/01/07 06:22:17;;;;;;;7.63;4.30;;;4.10;99.90;;;;;;5137100;27;20054;-80
2022/01/07 06:24:43;;;;;;;6.88;4.53;;;3.50;99.90;;;;;;5118450;27;20039;-79
2022/01/07 06:27:09;;;;;;;6.97;4.55;;;4.40;99.90;;;;;;5101851;27;20082;-80
2022/01/07 06:29:35;;;;;;;7.35;4.30;;;4.10;99.90;;;;;;5102223;27;20109;-80
2022/01/07 06:32:01;;;;;;;7.50;4.68;;;3.80;99.90;;;;;;5118593;27;20043;-80
2022/01/07 06:34:27;;;;;;;6.50;4.40;;;3.60;99.90;;;;;;5136646;27;20050;-80
2022/01/07 06:36:52;;;;;;;6.93;4.63;;;3.30;99.90;;;;;;5136769;27;20039;-81
2022/01/07 06:39:19;;;;;;;6.57;4.05;;;3.40;99.90;;;;;;5136561;27;20047;-80
2022/01/07 06:41:49;;;;;;;6.60;4.18;;;3.50;99.90;;;;;;5101414;27;20043;-81
2022/01/07 06:44:15;;;;;;;7.13;4.80;;;3.50;99.90;;;;;;5101440;27;20092;-80
2022/01/07 06:46:41;;;;;;;7.68;4.53;;;3.60;99.90;;;;;;5101190;27;20050;-80
2022/01/07 06:49:07;;;;;;;5.43;4.55;;;3.60;99.90;;;;;;5100235;27;20042;-80
2022/01/07 06:51:33;;;;;;;8.20;4.78;;;3.70;99.90;;;;;;5136965;27;20352;-76
2022/01/07 06:53:59;;;;;;;7.00;4.72;;;3.80;99.90;;;;;;5136899;27;20421;-80
2022/01/07 06:56:25;;;;;;;5.15;4.50;;;3.60;99.90;;;;;;5136430;27;20104;-80
2022/01/07 06:58:51;;;;;;;6.00;4.45;;;3.90;99.90;;;;;;5136354;27;20051;-80
2022/01/07 07:01:17;;;;;;;5.55;4.18;;;3.70;99.90;;;;;;5136079;27;20047;-79
2022/01/07 07:03:43;;;;;;;8.70;4.93;;;3.40;99.90;;;;;;5136918;27;20055;-80
2022/01/07 07:06:11;;;;;;;5.57;4.18;;;4.10;99.90;;;;;;5118083;27;20383;-80
2022/01/07 07:08:36;;;;;;;7.10;4.50;;;3.60;99.90;;;;;;5136148;27;20039;-79
2022/01/07 07:11:02;;;;;;;5.70;4.20;;;3.70;99.90;;;;;;5117982;27;20435;-80
2022/01/07 07:13:28;;;;;;;7.93;4.53;;;3.80;99.90;;;;;;5101127;27;20039;-80
2022/01/07 07:15:53;;;;;;;9.13;4.65;;;4.30;99.90;;;;;;5136121;27;20375;-80
2022/01/07 07:18:19;;;;;;;6.57;4.15;;;3.60;99.90;;;;;;5136812;27;20054;-79
2022/01/07 07:20:45;;;;;;;6.40;4.32;;;3.80;99.90;;;;;;5101807;27;20143;-79
2022/01/07 07:23:11;;;;;;;6.65;4.38;;;3.80;99.90;;;;;;5118203;27;20436;-78
2022/01/07 07:25:36;;;;;;;6.53;4.47;;;3.60;99.90;;;;;;5135921;27;20050;-79
2022/01/07 07:28:02;;;;;;;7.60;4.78;;;3.60;99.90;;;;;;5117546;27;20467;-79
2022/01/07 07:30:37;;;;;;;5.82;4.60;;;3.70;99.90;;;;;;5135856;27;20046;-78
2022/01/07 07:38:50;;;;;;;6.50;4.20;;;3.60;99.90;;;;;;5072942;27;20498;-78
2022/01/07 07:41:16;;;;;;;7.30;4.45;;;4.40;99.90;;;;;;5118586;27;20051;-79
2022/01/07 07:43:42;;;;;;;6.43;4.25;;;3.70;99.90;;;;;;5101226;27;20043;-78
2022/01/07 07:46:08;;;;;;;6.45;4.90;;;3.70;99.90;;;;;;5117902;27;20047;-79
2022/01/07 07:48:34;;;;;;;7.03;4.10;;;3.90;99.90;;;;;;5100784;27;20047;-78
2022/01/07 07:51:00;;;;;;;5.65;4.10;;;4.10;99.90;;;;;;5117703;27;20095;-78
2022/01/07 07:53:26;;;;;;;6.60;4.38;;;4.00;99.90;;;;;;5137431;27;20043;-79
2022/01/07 07:55:55;;;;;;;5.75;4.45;;;4.10;99.90;;;;;;5118906;27;20081;-79
2022/01/07 07:58:22;;;;;;;7.13;4.80;;;4.00;99.90;;;;;;5118824;27;20043;-79
2022/01/07 08:00:48;;;;;;;6.65;4.75;;;4.10;99.90;;;;;;5135457;27;20043;-78
2022/01/07 08:03:14;;;;;;;6.30;4.18;;;3.90;99.90;;;;;;5099731;27;20107;-79
2022/01/07 08:05:40;;;;;;;8.30;4.82;;;4.00;99.90;;;;;;5116679;27;20043;-78
2022/01/07 08:08:06;;;;;;;7.35;5.18;;;3.90;99.90;;;;;;5134990;27;20097;-78
2022/01/07 08:10:32;;;;;;;7.15;5.05;;;4.00;99.90;;;;;;5135749;27;20054;-79
2022/01/07 08:18:14;;;;;;;7.97;5.55;;;3.60;99.90;;;;;;5134871;27;20047;-78
2022/01/07 08:20:40;;;;;;;9.02;5.30;;;4.10;99.90;;;;;;5116757;27;20055;-78
2022/01/07 08:23:06;;;;;;;6.45;4.97;;;4.10;99.90;;;;;;5116976;27;20406;-79
2022/01/07 08:25:32;;;;;;;6.45;4.82;;;4.00;99.90;;;;;;5116607;27;20383;-79
2022/01/07 08:28:03;;;;;;;8.88;5.88;;;4.60;99.90;;;;;;5117416;27;20046;-79
2022/01/07 08:30:36;;;;;;;8.88;5.55;;;4.20;99.90;;;;;;5116812;27;20051;-79
2022/01/07 08:35:48;;;;;;;10.23;6.28;;;4.60;99.90;;;;;;5136976;27;20051;-80
2022/01/07 08:38:14;;;;;;;8.27;6.28;;;4.20;99.90;;;;;;5134767;27;20078;-80
2022/01/07 08:40:39;;;;;;;9.70;5.95;;;4.50;99.90;;;;;;5099787;28;20082;-79
2022/01/07 08:43:06;;;;;;;10.75;6.25;;;4.70;99.90;;;;;;5116821;28;20046;-80
2022/01/07 08:45:32;;;;;;;10.30;6.70;;;4.60;99.90;;;;;;5116870;28;20047;-79
2022/01/07 08:47:59;;;;;;;8.52;6.32;;;4.20;99.90;;;;;;5102707;28;20047;-80
2022/01/07 08:50:25;;;;;;;12.32;7.32;;;4.10;99.90;;;;;;5118884;28;20042;-76
2022/01/07 08:52:52;;;;;;;10.55;6.80;;;4.60;99.90;;;;;;5099525;28;20061;-77
2022/01/07 08:55:18;;;;;;;11.07;7.00;;;5.00;99.90;;;;;;5116790;28;20047;-81
2022/01/07 08:57:45;;;;;;;12.68;7.55;;;4.50;99.90;;;;;;5134598;28;20479;-76
2022/01/07 09:00:12;;;;;;;13.32;7.43;;;4.00;99.90;;;;;;5134628;28;20410;-77
2022/01/07 09:02:37;;;;;;;13.30;7.72;;;4.20;99.90;;;;;;5115850;28;20397;-79
2022/01/07 09:05:03;;;;;;;13.02;7.63;;;4.30;99.90;;;;;;5134483;28;20047;-82
2022/01/07 09:07:29;;;;;;;11.27;7.93;;;4.30;99.90;;;;;;5099477;28;20047;-82
2022/01/07 09:09:55;;;;;;;14.70;7.95;;;4.30;99.90;;;;;;5098961;28;20104;-80
2022/01/07 09:12:21;;;;;;;13.23;7.28;;;4.50;99.90;;;;;;5136133;27;20134;-81
2022/01/07 09:14:47;;;;;;;17.70;8.35;;;4.60;99.90;;;;;;5120230;27;20039;-79
2022/01/07 09:17:12;;;;;;;12.85;8.25;;;5.20;99.90;;;;;;5120129;27;20058;-80
2022/01/07 09:19:38;;;;;;;12.52;7.88;;;4.60;99.90;;;;;;5103037;27;20467;-75
2022/01/07 09:22:04;;;;;;;11.82;7.50;;;4.50;99.90;;;;;;5120192;27;20133;-76
2022/01/07 09:24:30;;;;;;;14.82;8.30;;;4.90;99.90;;;;;;5103117;27;20134;-75
2022/01/07 09:26:57;;;;;;;13.02;7.82;;;4.50;99.90;;;;;;5138261;27;20094;-76
2022/01/07 09:29:27;;;;;;;13.00;7.88;;;4.70;99.90;;;;;;5138211;27;20043;-74
2022/01/07 09:31:54;;;;;;;14.73;8.70;;;4.80;99.90;;;;;;5138936;27;20179;-75
2022/01/07 09:34:20;;;;;;;16.00;8.50;;;4.60;99.90;;;;;;5138033;27;20039;-76
2022/01/07 09:36:45;;;;;;;12.40;8.43;;;4.90;99.90;;;;;;5119818;27;20065;-76
2022/01/07 09:39:12;;;;;;;14.20;8.27;;;5.40;99.90;;;;;;5137853;27;20039;-77
2022/01/07 09:41:38;;;;;;;12.77;8.48;;;4.90;99.90;;;;;;5119748;27;20035;-77
2022/01/07 09:44:08;;;;;;;14.80;8.90;;;5.10;99.90;;;;;;5119285;27;20044;-76
2022/01/07 09:46:33;;;;;;;13.77;9.43;;;4.80;99.90;;;;;;5119665;27;20083;-76
2022/01/07 09:48:59;;;;;;;18.13;9.00;;;4.90;99.90;;;;;;5120567;27;20039;-76
2022/01/07 09:51:27;;;;;;;14.48;8.40;;;4.80;99.90;;;;;;5119601;27;20038;-77
2022/01/07 09:53:52;;;;;;;15.25;9.60;;;5.00;99.90;;;;;;5137682;27;20363;-75
2022/01/07 09:56:19;;;;;;;15.40;9.40;;;4.70;99.90;;;;;;5137612;27;20038;-75
2022/01/07 09:58:45;;;;;;;13.02;8.65;;;4.60;99.90;;;;;;5103506;27;20366;-76
2022/01/07 10:01:16;;;;;;;15.88;9.13;;;5.20;99.90;;;;;;5137610;27;20167;-76
2022/01/07 10:03:43;;;;;;;15.65;9.18;;;4.60;99.90;;;;;;5103621;27;20051;-75
2022/01/07 10:06:22;;;;;;;14.10;8.70;;;5.40;99.90;;;;;;5119424;27;20043;-75
2022/01/07 10:09:12;;;;;;;16.83;9.75;;;5.20;99.90;;;;;;5137137;27;20471;-76
2022/01/07 10:11:38;;;;;;;14.02;9.35;;;5.40;99.90;;;;;;5102677;27;20134;-75
2022/01/07 10:14:15;;;;;;;17.25;8.80;;;4.90;99.90;;;;;;5137315;27;20027;-75
2022/01/07 10:16:55;;;;;;;13.13;8.45;;;5.10;99.90;;;;;;5102218;27;20043;-76
2022/01/07 10:19:38;;;;;;;16.15;9.32;;;5.30;99.90;;;;;;5137227;27;20348;-76
2022/01/07 10:22:08;;;;;;;15.55;9.63;;;5.00;99.90;;;;;;5119006;27;20041;-75
2022/01/07 10:24:57;;;;;;;15.13;9.98;;;5.10;99.90;;;;;;5137666;27;20114;-75
2022/01/07 10:27:33;;;;;;;15.52;9.80;;;5.20;99.90;;;;;;5101960;27;20043;-80
2022/01/07 10:29:59;;;;;;;13.88;7.35;;;5.30;99.90;;;;;;5137180;27;20479;-79
2022/01/07 10:32:29;;;;;;;13.40;6.50;;;5.10;99.90;;;;;;5137035;27;20082;-81
2022/01/07 10:35:08;;;;;;;10.65;6.25;;;5.00;99.90;;;;;;5136937;27;20039;-80
2022/01/07 10:37:36;;;;;;;9.55;5.85;;;4.90;99.90;;;;;;5137274;27;20122;-79
2022/01/07 10:40:21;;;;;;;11.50;6.35;;;5.20;99.90;;;;;;5136740;27;20094;-81
2022/01/07 10:42:47;;;;;;;10.90;7.07;;;5.00;99.90;;;;;;5136608;27;20039;-81
2022/01/07 10:45:12;;;;;;;13.75;7.55;;;4.90;99.90;;;;;;5137082;27;20041;-81
2022/01/07 10:47:38;;;;;;;13.73;8.07;;;4.90;99.90;;;;;;5136636;27;20467;-81
2022/01/07 10:50:22;;;;;;;13.50;8.55;;;5.00;99.90;;;;;;5137124;27;20049;-82
2022/01/07 10:52:47;;;;;;;13.57;8.77;;;5.10;99.90;;;;;;5119139;27;20051;-82
2022/01/07 10:55:19;;;;;;;13.30;5.13;;;5.20;99.90;;;;;;5136835;27;20372;-83
2022/01/07 10:57:47;;;;;;;9.30;5.72;;;5.00;99.90;;;;;;5101332;27;20090;-82
2022/01/07 11:00:21;;;;;;;10.45;5.10;;;5.60;99.90;;;;;;5119028;27;20054;-82
2022/01/07 11:02:47;;;;;;;9.25;5.38;;;5.00;99.90;;;;;;5136345;27;20130;-84
2022/01/07 11:05:13;;;;;;;12.85;6.82;;;5.60;99.90;;;;;;5118018;27;20114;-82
2022/01/07 11:07:39;;;;;;;12.75;7.35;;;5.00;99.90;;;;;;5136304;27;20557;-84
2022/01/07 11:10:07;;;;;;;12.73;7.30;;;5.30;99.90;;;;;;5136256;27;20047;-82
2022/01/07 11:12:35;;;;;;;11.70;6.10;;;5.30;99.90;;;;;;5136075;27;20054;-84
2022/01/07 11:15:03;;;;;;;6.57;4.32;;;5.70;99.90;;;;;;5116336;27;20143;-75
2022/01/07 11:17:30;;;;;;;7.00;4.05;;;5.50;99.90;;;;;;5115562;27;20043;-82
2022/01/07 11:20:01;;;;;;;7.10;3.15;;;5.70;99.90;;;;;;5133617;27;20051;-81
2022/01/07 11:22:28;;;;;;;5.38;3.40;;;5.50;99.90;;;;;;5115527;27;20067;-77
2022/01/07 11:24:59;;;;;;;6.65;3.92;;;5.40;99.90;;;;;;5132765;27;20046;-77
2022/01/07 11:27:27;;;;;;;4.55;2.92;;;5.40;99.90;;;;;;5132646;27;20047;-76
2022/01/07 11:29:59;;;;;;;5.75;3.40;;;5.60;99.90;;;;;;5132804;27;20118;-76
2022/01/07 11:32:25;;;;;;;6.80;3.25;;;5.40;99.90;;;;;;5134794;27;20045;-76
2022/01/07 11:34:52;;;;;;;6.55;3.78;;;5.60;99.90;;;;;;5120620;27;20047;-74
2022/01/07 11:37:40;;;;;;;7.68;3.85;;;5.20;99.90;;;;;;5102214;27;20054;-75
2022/01/07 11:40:07;;;;;;;8.73;3.30;;;5.40;99.90;;;;;;5114454;27;20050;-75
2022/01/07 11:42:43;;;;;;;6.63;3.13;;;5.30;99.90;;;;;;5133211;27;20035;-75
2022/01/07 11:45:41;;;;;;;6.38;3.20;;;5.50;99.90;;;;;;5132959;27;20077;-83
2022/01/07 11:48:11;;;;;;;6.30;3.08;;;5.30;99.90;;;;;;5076520;27;20053;-75
2022/01/07 11:50:57;;;;;;;6.15;3.28;;;5.50;99.90;;;;;;5132715;27;20047;-76
2022/01/07 11:53:44;;;;;;;6.35;3.15;;;5.20;99.90;;;;;;5132696;27;20047;-79
2022/01/07 11:56:12;;;;;;;7.22;4.05;;;5.40;99.90;;;;;;5132293;27;20047;-84
2022/01/07 11:58:40;;;;;;;8.95;4.28;;;5.40;99.90;;;;;;5114122;27;20059;-76
2022/01/07 12:01:06;;;;;;;8.10;3.80;;;5.80;99.90;;;;;;5132501;27;20098;-83
2022/01/07 12:03:40;;;;;;;7.90;4.90;;;5.30;99.90;;;;;;5131969;27;20118;-80
2022/01/07 12:06:30;;;;;;;7.65;4.90;;;5.70;99.90;;;;;;5132235;27;20051;-75
2022/01/07 12:09:12;;;;;;;12.25;5.30;;;5.50;99.90;;;;;;5121109;27;20046;-74
2022/01/07 12:11:42;;;;;;;13.95;4.88;;;5.50;99.90;;;;;;5118995;27;20465;-74
2022/01/07 12:14:16;;;;;;;8.75;5.30;;;5.60;99.90;;;;;;5132070;27;20035;-75
2022/01/07 12:16:44;;;;;;;9.70;5.25;;;5.60;99.90;;;;;;5132634;27;20087;-76
2022/01/07 12:19:23;;;;;;;12.93;4.97;;;5.30;99.90;;;;;;5140101;27;20035;-76
2022/01/07 12:21:53;;;;;;;10.98;5.30;;;5.70;99.90;;;;;;5138501;27;20039;-75
2022/01/07 12:24:28;;;;;;;7.13;4.50;;;5.60;99.90;;;;;;5115265;27;20123;-75
2022/01/07 12:27:04;;;;;;;8.45;5.03;;;5.40;99.90;;;;;;5134076;27;20066;-82
2022/01/07 12:29:31;;;;;;;16.77;6.72;;;5.50;99.90;;;;;;5121619;27;20043;-76
2022/01/07 12:31:57;;;;;;;10.10;6.00;;;5.70;99.90;;;;;;5114347;27;20038;-81
2022/01/07 12:34:28;;;;;;;11.65;6.38;;;5.20;99.90;;;;;;5133241;27;20031;-74
2022/01/07 12:36:58;;;;;;;10.93;5.43;;;5.50;99.90;;;;;;5113492;28;20387;-82
2022/01/07 12:39:29;;;;;;;11.57;5.78;;;5.40;99.90;;;;;;5131382;27;20096;-83
2022/01/07 12:41:56;;;;;;;12.90;6.63;;;5.40;99.90;;;;;;5113871;28;20046;-82
2022/01/07 12:44:23;;;;;;;8.13;5.70;;;5.40;99.90;;;;;;5113154;28;20382;-82
2022/01/07 12:46:52;;;;;;;11.43;6.07;;;5.70;99.90;;;;;;5099969;27;20050;-75
2022/01/07 12:49:19;;;;;;;12.20;6.05;;;5.30;99.90;;;;;;5117953;27;20039;-81
2022/01/07 12:51:58;;;;;;;11.10;6.03;;;6.00;99.90;;;;;;5118414;27;20103;-79
2022/01/07 12:54:23;;;;;;;10.93;5.38;;;5.80;99.90;;;;;;5119789;27;20046;-75
2022/01/07 12:56:49;;;;;;;9.95;5.15;;;5.50;99.90;;;;;;5117779;27;20039;-75
2022/01/07 12:59:17;;;;;;;8.85;3.90;;;6.00;99.90;;;;;;5135570;27;20102;-74
2022/01/07 13:01:44;;;;;;;5.38;3.17;;;5.90;99.90;;;;;;5100669;27;20100;-81
2022/01/07 13:04:12;;;;;;;4.28;1.77;;;5.80;99.90;;;;;;5117207;27;20467;-79
2022/01/07 13:06:47;;;;;;;4.78;1.92;;;5.80;99.90;;;;;;5135319;27;20082;-75
2022/01/07 13:09:19;;;;;;;4.20;1.48;;;5.30;99.90;;;;;;5118013;27;20058;-82